Time;durP1;ratioP1;P1;durP2;ratioP2;P2;SDS_P1;SDS_P2;PMS_P1;PMS_P2;Temp;Humidity;BMP_temperature;BMP_pressure;BME280_temperature;BME280_humidity;BME280_pressure;Samples;Min_cycle;Max_cycle;Signal;HPM_P1;HPM_P2
2022/08/12 00:43:24;;;;;;;7.80;5.43;;;;;;;23.49;50.36;95273.84;5133767;27;20077;-85
2022/08/12 00:48:34;;;;;;;7.07;5.22;;;;;;;23.36;50.40;95263.09;5133918;27;20121;-85
2022/08/12 00:51:02;;;;;;;8.40;5.78;;;;;;;23.16;50.22;95228.22;5114986;27;20087;-85
2022/08/12 00:53:28;;;;;;;6.72;5.10;;;;;;;23.08;50.51;95233.47;5149446;27;20522;-84
2022/08/12 00:55:57;;;;;;;7.35;5.28;;;;;;;23.43;50.72;95274.06;5149088;27;20473;-84
2022/08/12 00:58:27;;;;;;;8.90;4.88;;;;;;;23.15;51.23;95253.69;5114616;27;20183;-84
2022/08/12 01:00:59;;;;;;;6.00;4.97;;;;;;;22.66;52.22;95235.09;5114657;27;20038;-84
2022/08/12 01:03:26;;;;;;;5.57;5.07;;;;;;;22.81;51.88;95239.75;5133155;27;20408;-84
2022/08/12 01:11:38;;;;;;;6.95;4.88;;;;;;;22.88;51.50;95234.53;5129766;27;20436;-85
2022/08/12 01:14:04;;;;;;;6.43;4.53;;;;;;;22.77;51.49;95233.50;5133843;27;20031;-84
2022/08/12 01:16:29;;;;;;;6.55;5.40;;;;;;;22.93;51.55;95260.53;5114864;27;20035;-85
2022/08/12 01:18:56;;;;;;;5.88;4.72;;;;;;;22.85;51.73;95253.38;5133219;27;20027;-84
2022/08/12 01:21:40;;;;;;;7.32;4.90;;;;;;;23.33;51.63;95326.03;5133005;27;20471;-84
2022/08/12 01:24:16;;;;;;;7.47;4.35;;;;;;;23.38;51.35;95319.56;5114112;27;20051;-85
2022/08/12 01:26:46;;;;;;;7.78;5.03;;;;;;;22.97;51.36;95264.88;5148751;27;20134;-84
2022/08/12 01:29:15;;;;;;;5.95;4.70;;;;;;;23.13;51.25;95300.03;5114491;27;20113;-85
2022/08/12 01:31:43;;;;;;;6.78;5.20;;;;;;;23.31;51.20;95319.41;5132884;27;20058;-84
2022/08/12 01:34:11;;;;;;;7.45;5.10;;;;;;;22.81;50.93;95230.88;5132720;27;20561;-85
2022/08/12 01:36:52;;;;;;;6.30;4.72;;;;;;;23.32;51.37;95323.69;5148144;27;20060;-84
2022/08/12 01:39:20;;;;;;;6.18;4.97;;;;;;;22.96;51.26;95290.34;5114289;28;20035;-84
2022/08/12 01:42:00;;;;;;;8.25;4.57;;;;;;;22.70;51.83;95255.69;5148273;27;20456;-85
2022/08/12 01:44:27;;;;;;;10.15;4.50;;;;;;;22.38;51.71;95186.53;5114195;28;20043;-84
2022/08/12 01:47:08;;;;;;;9.00;4.30;;;;;;;23.04;52.51;95321.06;5113903;28;20035;-84
2022/08/12 01:49:52;;;;;;;8.88;5.07;;;;;;;22.62;52.33;95275.56;5132987;28;20502;-84
2022/08/12 01:52:36;;;;;;;6.78;5.40;;;;;;;22.89;52.64;95317.22;5148348;27;20107;-84
2022/08/12 01:55:05;;;;;;;8.30;5.13;;;;;;;22.62;53.47;95318.81;5132485;28;20045;-85
2022/08/12 01:57:43;;;;;;;14.95;6.30;;;;;;;22.12;53.46;95243.00;5132316;28;20492;-84
2022/08/12 02:00:12;;;;;;;11.82;6.13;;;;;;;22.63;53.55;95314.19;5132528;28;20031;-85
2022/08/12 02:03:16;;;;;;;10.90;6.45;;;;;;;21.64;53.85;95190.72;5113810;28;20408;-85
2022/08/12 02:11:41;;;;;;;15.77;6.60;;;;;;;22.51;53.28;95311.56;5132448;28;20104;-84
2022/08/12 02:14:10;;;;;;;16.30;7.13;;;;;;;22.32;53.50;95301.41;5133148;28;20039;-85
2022/08/12 02:16:45;;;;;;;15.50;7.38;;;;;;;22.48;53.03;95306.84;5147955;27;20027;-84
2022/08/12 02:19:10;;;;;;;12.00;6.63;;;;;;;22.30;53.20;95304.44;5148265;27;20027;-85
2022/08/12 02:21:47;;;;;;;13.40;6.57;;;;;;;22.27;53.23;95315.19;5132109;28;20565;-84
2022/08/12 02:24:19;;;;;;;8.45;6.57;;;;;;;22.20;53.44;95310.34;5113709;28;20508;-84
2022/08/12 02:26:47;;;;;;;12.13;6.68;;;;;;;21.67;53.17;95225.09;5112724;28;20486;-85
2022/08/12 02:29:14;;;;;;;11.63;6.00;;;;;;;20.76;52.68;95083.72;5147461;27;20495;-84
2022/08/12 02:31:44;;;;;;;16.35;7.35;;;;;;;22.38;52.26;95313.53;5132509;28;20027;-84
2022/08/12 02:34:12;;;;;;;11.57;7.10;;;;;;;22.41;51.78;95309.38;5113940;28;20027;-85
2022/08/12 02:36:38;;;;;;;13.10;7.70;;;;;;;22.35;51.71;95324.25;5132239;28;20023;-84
2022/08/12 02:39:09;;;;;;;12.10;6.57;;;;;;;22.10;51.61;95281.13;5113611;28;20027;-84
2022/08/12 02:41:39;;;;;;;9.57;5.85;;;;;;;22.52;50.76;95311.22;5132744;28;20031;-85
2022/08/12 02:44:08;;;;;;;8.77;5.95;;;;;;;22.44;50.42;95295.16;5113708;28;20039;-85
2022/08/12 02:46:36;;;;;;;9.27;5.53;;;;;;;22.33;50.57;95270.56;5135734;27;20563;-85
2022/08/12 02:49:08;;;;;;;8.20;5.18;;;;;;;22.49;50.74;95303.81;5136758;27;20457;-85
2022/08/12 02:51:39;;;;;;;8.50;5.10;;;;;;;22.22;50.67;95269.47;5117511;27;20048;-85
2022/08/12 02:54:06;;;;;;;8.88;5.25;;;;;;;22.30;50.93;95303.66;5136244;27;20038;-85
2022/08/12 02:56:36;;;;;;;7.05;4.57;;;;;;;21.90;51.07;95257.75;5117168;27;20160;-85
2022/08/12 02:59:03;;;;;;;12.20;5.00;;;;;;;22.18;50.94;95290.22;5151523;27;20118;-84
2022/08/12 03:01:32;;;;;;;9.63;4.68;;;;;;;22.07;50.83;95265.59;5117304;27;20034;-84
2022/08/12 03:04:06;;;;;;;7.85;4.38;;;;;;;22.31;51.48;95310.63;5135299;27;20031;-85
2022/08/12 03:06:38;;;;;;;7.65;5.22;;;;;;;21.75;51.81;95218.00;5116949;27;20043;-84
2022/08/12 03:09:05;;;;;;;8.73;5.07;;;;;;;;;;5151572;27;20039;-85
2022/08/12 03:11:39;;;;;;;6.65;5.25;;;;;;;22.26;52.74;95286.59;5117290;27;20496;-85
2022/08/12 03:14:05;;;;;;;10.43;5.10;;;;;;;22.08;54.70;95272.59;5116933;27;20518;-84
2022/08/12 03:16:31;;;;;;;12.52;4.78;;;;;;;21.51;55.67;95198.06;5134981;27;20054;-84
2022/08/12 03:18:57;;;;;;;9.02;5.63;;;;;;;21.37;57.13;95213.84;5135369;27;20039;-84
2022/08/12 03:21:23;;;;;;;7.05;5.30;;;;;;;21.76;57.84;95304.03;5116643;27;20038;-84
2022/08/12 03:23:51;;;;;;;8.77;6.05;;;;;;;21.24;59.94;95236.56;5151114;27;20057;-84
2022/08/12 03:26:23;;;;;;;12.18;6.55;;;;;;;21.20;60.93;95218.72;5116457;27;20481;-85
2022/08/12 03:28:49;;;;;;;;;;;;;;;21.74;59.81;95316.31;5135947;27;20039;-85
2022/08/12 03:31:28;;;;;;;10.90;7.05;;;;;;;21.19;60.71;95236.81;5116299;27;19915;-84
2022/08/12 03:33:59;;;;;;;13.07;6.78;;;;;;;21.41;59.80;95289.50;5116559;27;20046;-84
2022/08/12 03:36:27;;;;;;;8.15;6.57;;;;;;;21.29;59.46;95257.13;5150838;27;20031;-84
2022/08/12 03:41:48;;;;;;;19.23;7.72;;;;;;;20.99;61.59;95222.28;5134713;27;20565;-84
2022/08/12 04:01:21;;;;;;;13.32;6.93;;;;;;;21.73;63.98;95342.53;5134387;27;20050;-85
2022/08/12 04:03:51;;;;;;;13.40;7.20;;;;;;;21.44;63.80;95289.59;5115535;27;20053;-84
2022/08/12 04:06:21;;;;;;;14.10;7.60;;;;;;;20.56;64.67;95176.25;5115658;27;20035;-84
2022/08/12 04:08:52;;;;;;;16.80;8.33;;;;;;;20.50;63.77;95161.44;5150212;27;20054;-85
2022/08/12 04:14:21;;;;;;;14.52;7.80;;;;;;;20.63;65.57;95206.91;5134286;27;20104;-85
2022/08/12 04:16:49;;;;;;;12.82;8.38;;;;;;;21.40;66.39;95320.28;5116045;27;20311;-85
2022/08/12 04:19:16;;;;;;;14.82;8.10;;;;;;;21.12;67.13;95256.22;5115838;27;20046;-85
2022/08/12 04:21:42;;;;;;;12.90;8.35;;;;;;;21.26;67.37;95290.19;5115938;27;20503;-85
2022/08/12 04:24:08;;;;;;;20.35;9.80;;;;;;;20.96;68.68;95241.84;5111992;28;20055;-85
2022/08/12 04:26:35;;;;;;;18.92;10.05;;;;;;;21.14;70.26;95266.66;5112254;28;20141;-86
2022/08/12 04:29:02;;;;;;;17.42;9.90;;;;;;;21.25;69.53;95318.28;5108231;28;20138;-86
2022/08/12 04:31:35;;;;;;;19.17;9.73;;;;;;;21.33;69.38;95328.16;5114759;28;20050;-86
2022/08/12 04:34:02;;;;;;;16.17;8.75;;;;;;;21.06;70.03;95303.38;5114684;28;20035;-86
2022/08/12 04:36:29;;;;;;;14.77;9.77;;;;;;;21.30;69.85;95336.91;5146132;27;20042;-86
2022/08/12 04:38:56;;;;;;;18.10;11.52;;;;;;;20.28;70.75;95192.25;5106938;28;20494;-86
2022/08/12 04:41:23;;;;;;;17.80;11.45;;;;;;;20.54;70.42;95264.69;5113048;28;20035;-86
2022/08/12 04:43:49;;;;;;;14.68;11.27;;;;;;;19.14;71.42;95075.28;5106004;28;20047;-86
2022/08/12 04:46:14;;;;;;;16.27;11.60;;;;;;;19.30;71.73;95074.69;5111963;28;20032;-86
2022/08/12 04:48:40;;;;;;;13.43;10.32;;;;;;;20.75;71.63;95300.47;5113510;28;20114;-86
2022/08/12 04:51:06;;;;;;;21.33;11.15;;;;;;;20.39;72.23;95271.53;5107135;28;20403;-86
2022/08/12 04:53:32;;;;;;;16.52;10.60;;;;;;;21.00;72.79;95336.31;5111811;28;20067;-85
2022/08/12 04:55:59;;;;;;;15.57;11.05;;;;;;;20.65;72.92;95330.53;5140989;27;20466;-87
2022/08/12 04:58:25;;;;;;;18.42;11.02;;;;;;;20.06;72.78;95224.97;5147583;27;20039;-86
2022/08/12 05:00:50;;;;;;;18.27;11.57;;;;;;;20.69;74.79;95316.03;5105273;28;20120;-85
2022/08/12 05:03:16;;;;;;;13.30;10.15;;;;;;;20.74;72.88;95337.41;5113319;28;20035;-85
2022/08/12 05:05:42;;;;;;;17.42;10.48;;;;;;;20.48;73.69;95304.53;5104323;28;20075;-85
2022/08/12 05:08:12;;;;;;;17.10;9.75;;;;;;;20.31;72.47;95269.66;5112102;28;20039;-86
2022/08/12 05:10:38;;;;;;;17.98;11.15;;;;;;;20.92;74.53;95345.28;5146187;27;20096;-85
2022/08/12 05:13:07;;;;;;;20.27;10.70;;;;;;;20.20;73.47;95234.31;5113888;28;20027;-86
2022/08/12 05:15:38;;;;;;;20.98;10.02;;;;;;;20.78;72.62;95305.97;5115313;28;20042;-85
2022/08/12 05:18:04;;;;;;;14.63;9.25;;;;;;;20.82;71.00;95311.47;5107569;28;20523;-86
2022/08/12 05:20:29;;;;;;;12.85;9.05;;;;;;;19.95;71.60;95174.22;5105742;28;20078;-86
2022/08/12 05:23:09;;;;;;;15.52;10.20;;;;;;;20.74;70.02;95317.75;5075976;28;20458;-85
2022/08/12 05:25:35;;;;;;;16.83;10.23;;;;;;;20.82;73.37;95310.69;5067412;28;20040;-86
2022/08/12 05:28:04;;;;;;;17.58;11.40;;;;;;;20.97;73.02;95326.22;5057543;28;20052;-86
2022/08/12 05:30:32;;;;;;;18.08;9.45;;;;;;;20.79;72.07;95288.66;5107390;28;20047;-86
2022/08/12 05:32:58;;;;;;;18.83;10.10;;;;;;;21.28;72.63;95345.38;5107854;28;20044;-85
2022/08/12 05:35:24;;;;;;;22.48;11.40;;;;;;;20.92;72.74;95275.19;5075184;28;20073;-86
2022/08/12 05:40:33;;;;;;;18.70;11.30;;;;;;;20.93;73.80;95296.44;5092278;28;20035;-86
2022/08/12 05:42:59;;;;;;;21.17;11.60;;;;;;;20.81;73.73;95264.09;5108786;28;20028;-87
2022/08/12 05:45:24;;;;;;;18.77;10.45;;;;;;;19.52;73.40;95053.59;5074445;28;20452;-86
2022/08/12 05:47:49;;;;;;;19.15;10.52;;;;;;;20.06;73.74;95136.91;5074108;28;20032;-86
2022/08/12 05:50:15;;;;;;;21.95;11.93;;;;;;;21.40;73.46;95353.44;5108361;28;20043;-86
2022/08/12 05:52:40;;;;;;;14.27;10.65;;;;;;;21.55;73.57;95354.69;5073811;28;20055;-87
2022/08/12 05:55:07;;;;;;;11.57;8.93;;;;;;;21.21;73.26;95293.88;5074722;28;20032;-86
2022/08/12 05:57:32;;;;;;;10.55;9.40;;;;;;;21.02;70.97;95245.88;5074485;28;20048;-87
2022/08/12 05:59:57;;;;;;;14.48;9.25;;;;;;;20.82;72.42;95184.81;5108724;28;20173;-86
2022/08/12 06:02:25;;;;;;;17.30;9.05;;;;;;;21.07;70.57;95207.91;5094328;28;20039;-86
2022/08/12 06:04:50;;;;;;;11.73;8.70;;;;;;;21.85;70.59;95331.69;5109682;28;20108;-86
2022/08/12 06:07:17;;;;;;;11.70;9.35;;;;;;;22.06;71.15;95339.66;5075810;28;20032;-86
2022/08/12 06:09:42;;;;;;;15.98;7.95;;;;;;;22.18;69.46;95349.66;5095543;28;20024;-86
2022/08/12 06:12:08;;;;;;;10.35;7.07;;;;;;;21.96;68.82;95296.91;5095823;28;20038;-85
2022/08/12 06:14:35;;;;;;;11.43;7.68;;;;;;;22.38;69.31;95350.56;5077209;28;20039;-85
2022/08/12 06:17:01;;;;;;;7.78;6.75;;;;;;;21.86;68.75;95254.19;5076383;28;20026;-85
2022/08/12 06:19:30;;;;;;;12.27;7.32;;;;;;;22.25;67.91;95310.13;5097578;28;20070;-84
2022/08/12 06:21:56;;;;;;;13.23;8.30;;;;;;;22.45;67.83;95340.75;5079516;28;20035;-85
2022/08/12 06:24:24;;;;;;;17.77;8.65;;;;;;;21.21;67.01;95118.56;5078503;28;20060;-85
2022/08/12 06:26:50;;;;;;;11.23;8.88;;;;;;;22.77;68.52;95352.44;5112253;28;20441;-85
2022/08/12 06:29:18;;;;;;;16.67;9.70;;;;;;;21.27;67.41;95108.34;5096528;28;20040;-85
2022/08/12 06:31:49;;;;;;;12.65;8.80;;;;;;;21.45;65.87;95139.28;5096123;28;20024;-86
2022/08/12 06:34:16;;;;;;;15.10;8.93;;;;;;;21.57;67.64;95131.16;5078059;28;20055;-86
2022/08/12 06:36:42;;;;;;;11.07;9.18;;;;;;;22.62;67.26;95286.38;5077717;28;20084;-85
2022/08/12 06:39:07;;;;;;;13.60;9.02;;;;;;;22.94;68.11;95335.91;5077128;28;20083;-85
2022/08/12 06:44:19;;;;;;;10.63;8.10;;;;;;;22.94;67.18;95343.22;5095553;28;20134;-85
2022/08/12 06:46:46;;;;;;;16.92;9.15;;;;;;;22.65;66.46;95311.94;5095805;28;20035;-85
2022/08/12 06:49:12;;;;;;;13.65;8.27;;;;;;;22.33;65.73;95249.75;5112305;28;20028;-86
2022/08/12 06:51:37;;;;;;;14.80;8.93;;;;;;;22.50;67.75;95256.75;5095179;28;20046;-86
2022/08/12 06:54:03;;;;;;;16.02;10.18;;;;;;;23.29;66.08;95349.50;5095286;28;20028;-86
2022/08/12 06:56:29;;;;;;;14.75;11.10;;;;;;;22.85;65.79;95283.13;5094790;28;20080;-86
2022/08/12 06:58:56;;;;;;;13.77;9.98;;;;;;;23.16;65.74;95315.56;5076782;28;20031;-85
2022/08/12 07:01:23;;;;;;;20.33;10.52;;;;;;;22.07;66.49;95164.91;5078430;28;20091;-85
2022/08/12 07:03:50;;;;;;;21.10;9.65;;;;;;;23.42;65.29;95342.09;5076116;28;20023;-86
2022/08/12 07:06:18;;;;;;;21.80;9.82;;;;;;;21.94;64.47;95102.84;5076334;28;20070;-86
2022/08/12 07:08:44;;;;;;;15.35;8.82;;;;;;;22.91;64.06;95260.88;5096623;28;20085;-85
2022/08/12 07:11:12;;;;;;;20.65;9.57;;;;;;;22.94;64.01;95249.38;5094933;28;20050;-85
2022/08/12 07:13:43;;;;;;;18.67;10.75;;;;;;;22.78;64.34;95256.69;5068482;28;20032;-85
2022/08/12 07:16:12;;;;;;;24.58;9.65;;;;;;;23.25;64.64;95310.78;5109732;28;20040;-85
2022/08/12 07:18:39;;;;;;;15.43;9.82;;;;;;;22.94;62.73;95271.00;5068177;28;20082;-86
2022/08/12 07:21:06;;;;;;;28.20;11.00;;;;;;;23.59;62.41;95344.44;5075980;28;20055;-85
2022/08/12 07:23:34;;;;;;;21.20;10.18;;;;;;;23.32;63.10;95310.16;5076254;28;20452;-85
2022/08/12 07:26:01;;;;;;;13.82;10.07;;;;;;;23.62;61.70;95341.03;5075308;28;20036;-85
2022/08/12 07:28:32;;;;;;;16.73;10.25;;;;;;;23.30;62.03;95296.19;5096898;28;20119;-86
2022/08/12 07:30:58;;;;;;;29.00;9.82;;;;;;;23.22;60.57;95283.63;5113614;28;20540;-85
2022/08/12 07:33:27;;;;;;;16.65;9.98;;;;;;;23.77;62.81;95342.94;5095994;28;20085;-86
2022/08/12 07:35:55;;;;;;;18.13;8.48;;;;;;;23.15;60.23;95245.59;5114594;28;20031;-85
2022/08/12 07:38:32;;;;;;;15.52;9.65;;;;;;;23.62;61.95;95332.94;5114465;28;20032;-85
2022/08/12 07:41:04;;;;;;;14.20;8.80;;;;;;;23.87;61.16;95333.47;5095945;28;20092;-85
2022/08/12 07:43:32;;;;;;;16.92;10.35;;;;;;;23.36;59.96;95292.84;5098660;28;20039;-85
2022/08/12 07:45:59;;;;;;;19.85;9.65;;;;;;;23.60;61.17;95340.59;5066041;28;20033;-85
2022/08/12 07:48:26;;;;;;;20.25;9.85;;;;;;;23.68;59.81;95333.44;5062444;28;20031;-86
2022/08/12 07:50:52;;;;;;;16.30;10.07;;;;;;;23.66;61.74;95287.75;5090456;28;20394;-86
2022/08/12 07:53:19;;;;;;;19.05;9.35;;;;;;;23.37;59.66;95242.22;5114015;28;20055;-85
2022/08/12 07:55:46;;;;;;;21.98;11.45;;;;;;;23.71;60.97;95265.84;5081617;28;20118;-86
2022/08/12 07:58:11;;;;;;;20.92;9.13;;;;;;;24.11;58.75;95316.16;5093899;28;20043;-85
2022/08/12 08:00:41;;;;;;;20.45;7.85;;;;;;;23.86;57.88;95269.63;5071573;28;20040;-85
2022/08/12 08:03:07;;;;;;;10.05;6.03;;;;;;;24.13;57.62;95298.41;5105649;28;20094;-85
2022/08/12 08:05:38;;;;;;;17.38;6.75;;;;;;;24.33;58.71;95322.84;5074693;28;20054;-85
2022/08/12 08:08:19;;;;;;;12.40;6.45;;;;;;;24.30;56.30;95310.00;5071260;28;20169;-84
2022/08/12 08:10:45;;;;;;;10.70;6.43;;;;;;;23.41;56.48;95146.47;5105628;28;20131;-84
2022/08/12 08:13:12;;;;;;;9.38;5.85;;;;;;;24.62;55.58;95322.25;5071441;28;20039;-85
2022/08/12 08:15:39;;;;;;;11.55;5.65;;;;;;;24.81;54.97;95318.69;5075296;28;20032;-85
2022/08/12 08:18:10;;;;;;;7.70;6.05;;;;;;;24.71;54.81;95282.13;5093921;28;20032;-85
2022/08/12 08:20:41;;;;;;;11.57;5.35;;;;;;;24.38;55.01;95298.94;5119593;27;20035;-85
2022/08/12 08:23:10;;;;;;;15.80;5.45;;;;;;;24.80;54.13;95315.19;5094853;28;20035;-84
2022/08/12 08:25:37;;;;;;;7.78;4.78;;;;;;;24.29;53.26;95229.84;5110035;28;20130;-85
2022/08/12 08:28:09;;;;;;;6.63;4.30;;;;;;;24.75;52.49;95285.69;5111999;28;20020;-85
2022/08/12 08:30:37;;;;;;;10.10;5.72;;;;;;;24.48;54.06;95227.88;5111906;28;20379;-85
2022/08/12 08:33:04;;;;;;;11.48;6.30;;;;;;;24.77;54.54;95274.47;5112223;28;20080;-84
2022/08/12 08:35:30;;;;;;;15.25;5.97;;;;;;;24.69;54.29;95242.94;5112192;28;20036;-86
2022/08/12 08:38:12;;;;;;;11.48;6.03;;;;;;;25.38;54.39;95310.41;5112025;28;20097;-85
2022/08/12 08:43:31;;;;;;;9.10;4.75;;;;;;;25.45;50.37;95271.72;5112643;28;20105;-85
2022/08/12 08:45:59;;;;;;;8.38;4.95;;;;;;;25.73;52.51;95290.38;5113159;28;20031;-84
2022/08/12 08:48:25;;;;;;;9.35;5.30;;;;;;;25.57;51.42;95255.19;5146247;27;20200;-85
2022/08/12 08:50:51;;;;;;;8.80;4.65;;;;;;;25.88;50.22;95285.91;5113674;28;20055;-84
2022/08/12 08:53:17;;;;;;;19.60;5.10;;;;;;;25.37;48.89;95205.69;5111254;28;20124;-85
2022/08/12 08:55:43;;;;;;;14.20;5.03;;;;;;;25.48;47.28;95224.81;5112985;28;20458;-84
2022/08/12 08:58:09;;;;;;;15.40;4.80;;;;;;;26.00;46.00;95282.97;5113112;28;20093;-84
2022/08/12 09:00:38;;;;;;;12.32;4.85;;;;;;;25.62;47.52;95205.25;5144725;27;20027;-84
2022/08/12 09:03:05;;;;;;;9.60;4.10;;;;;;;25.79;48.21;95210.13;5112454;28;20193;-85
2022/08/12 09:05:31;;;;;;;6.53;4.45;;;;;;;25.97;48.76;95241.00;5111428;28;20054;-85
2022/08/12 09:08:00;;;;;;;7.65;3.70;;;;;;;26.20;46.80;95278.94;5111598;28;20507;-84
2022/08/12 09:10:26;;;;;;;4.05;3.30;;;;;;;25.89;46.04;95239.34;5113597;28;20032;-85
2022/08/12 09:15:35;;;;;;;4.88;3.25;;;;;;;26.18;44.68;95250.56;5112906;28;20070;-85
2022/08/12 09:18:04;;;;;;;7.70;3.10;;;;;;;26.10;43.99;95222.50;5112377;28;20031;-84
2022/08/12 09:20:34;;;;;;;8.95;3.58;;;;;;;26.43;44.19;95247.00;5111877;28;20091;-84
2022/08/12 09:23:04;;;;;;;12.52;4.72;;;;;;;25.83;43.54;95147.69;5111245;28;20027;-85
2022/08/12 09:25:30;;;;;;;6.67;4.27;;;;;;;26.60;44.44;95261.94;5130045;27;20104;-84
2022/08/12 09:28:00;;;;;;;6.07;3.92;;;;;;;26.52;42.37;95263.78;5133508;27;20106;-85
2022/08/12 09:30:26;;;;;;;5.32;3.47;;;;;;;26.25;42.87;95196.25;5112275;28;20027;-85
2022/08/12 09:32:52;;;;;;;3.60;2.92;;;;;;;26.65;42.39;95250.69;5127013;27;20027;-85
2022/08/12 09:35:26;;;;;;;6.72;3.45;;;;;;;26.83;41.69;95265.25;5132595;27;20031;-84
2022/08/12 09:37:54;;;;;;;9.35;3.80;;;;;;;27.01;41.55;95267.38;5132493;27;20034;-85
2022/08/12 09:40:21;;;;;;;5.68;4.10;;;;;;;27.01;41.90;95261.91;5147561;27;20054;-85
2022/08/12 09:45:32;;;;;;;5.50;3.72;;;;;;;26.72;40.15;95190.91;5132991;28;20054;-85
2022/08/12 09:48:02;;;;;;;5.60;3.10;;;;;;;26.84;39.63;95200.75;5114206;28;20041;-84
2022/08/12 09:50:28;;;;;;;9.27;3.63;;;;;;;27.14;40.64;95233.28;5132910;28;20179;-84
2022/08/12 09:53:07;;;;;;;6.30;3.85;;;;;;;27.27;40.02;95248.91;5132512;27;20104;-84
2022/08/12 09:55:34;;;;;;;5.93;3.45;;;;;;;27.32;39.85;95258.66;5152423;27;20023;-85
2022/08/12 09:58:00;;;;;;;4.97;3.05;;;;;;;26.95;39.87;95189.94;5151142;27;20179;-84
2022/08/12 10:00:26;;;;;;;3.03;2.67;;;;;;;27.35;38.65;95248.97;5117629;27;20077;-85
2022/08/12 10:03:09;;;;;;;5.75;3.42;;;;;;;27.00;37.98;95184.19;5135624;27;20048;-85
2022/08/12 10:05:54;;;;;;;5.40;2.85;;;;;;;27.23;38.50;95193.69;5116704;27;20034;-84
2022/08/12 10:08:20;;;;;;;7.88;3.15;;;;;;;26.94;39.39;95174.78;5116052;27;20384;-85
2022/08/12 10:13:41;;;;;;;6.53;3.17;;;;;;;27.45;38.36;95145.56;5135718;27;20066;-85
2022/08/12 10:16:17;;;;;;;6.47;3.40;;;;;;;28.83;37.34;95229.78;5136052;27;20469;-84
2022/08/12 10:18:49;;;;;;;3.90;2.95;;;;;;;29.29;36.26;95234.44;5117544;27;20118;-85
2022/08/12 10:21:17;;;;;;;6.57;3.60;;;;;;;29.33;36.69;95224.28;5136848;27;20023;-84
2022/08/12 10:23:47;;;;;;;3.55;2.88;;;;;;;29.04;35.63;95198.94;5135729;27;20035;-84
2022/08/12 10:31:50;;;;;;;8.02;2.95;;;;;;;28.96;35.88;95168.16;5115972;28;20053;-85
2022/08/12 10:34:18;;;;;;;6.32;3.25;;;;;;;28.46;36.42;95186.41;5116014;28;20061;-84
2022/08/12 12:41:41;;;;;;;17.90;4.75;;;;;;;25.41;46.42;95015.69;6149465;23;20043;-84
2022/08/12 12:44:07;;;;;;;15.48;5.53;;;;;;;26.30;49.86;95098.88;6146125;23;20041;-83
2022/08/12 12:46:32;;;;;;;9.52;4.28;;;;;;;26.61;46.28;95132.16;6148291;23;20009;-84
2022/08/12 12:48:58;;;;;;;9.10;4.03;;;;;;;26.77;49.79;95103.53;6149725;23;20033;-84
2022/08/12 12:51:23;;;;;;;10.57;4.72;;;;;;;27.14;50.10;95122.44;6152855;23;20009;-84
2022/08/12 12:53:49;;;;;;;6.47;4.50;;;;;;;26.84;49.63;95070.16;6150837;23;20092;-84
2022/08/12 12:56:19;;;;;;;6.50;4.20;;;;;;;27.03;46.38;95096.31;6148131;23;20013;-84
2022/08/12 12:58:50;;;;;;;7.88;4.00;;;;;;;26.83;44.39;95044.09;6147448;23;20363;-84
2022/08/12 13:01:18;;;;;;;5.53;3.72;;;;;;;27.68;43.06;95112.59;6152770;23;20372;-84
2022/08/12 13:03:44;;;;;;;6.10;3.85;;;;;;;27.57;41.82;95076.38;6152781;23;20018;-84
2022/08/12 13:06:11;;;;;;;7.40;3.75;;;;;;;28.40;44.07;95100.69;6154329;23;20017;-84
2022/08/12 13:08:38;;;;;;;7.65;4.22;;;;;;;28.70;41.26;95073.00;6153560;23;20010;-84
2022/08/12 13:11:05;;;;;;;8.57;4.00;;;;;;;29.48;38.63;95113.81;6154348;23;20440;-84
2022/08/12 13:13:33;;;;;;;7.45;4.03;;;;;;;29.92;38.38;95091.34;6154246;23;20032;-84
2022/08/12 13:16:01;;;;;;;4.70;3.72;;;;;;;29.84;37.40;95066.00;6152464;23;20032;-84
2022/08/12 13:18:37;;;;;;;7.25;4.20;;;;;;;29.86;36.18;95024.63;6152995;23;20016;-85
2022/08/12 13:21:07;;;;;;;6.68;3.72;;;;;;;30.37;36.51;95094.22;6153291;23;20064;-85
2022/08/12 13:23:34;;;;;;;6.20;3.47;;;;;;;30.02;36.57;94962.03;6154478;23;20108;-84
2022/08/12 13:26:00;;;;;;;8.52;4.22;;;;;;;30.36;35.24;95007.88;6154785;23;20032;-84
2022/08/12 13:28:28;;;;;;;11.25;3.83;;;;;;;30.96;35.46;95079.28;6155242;23;20490;-85
2022/08/12 13:30:58;;;;;;;5.47;3.60;;;;;;;30.90;34.14;95006.16;6155463;23;20113;-85
2022/08/12 13:33:28;;;;;;;7.07;4.10;;;;;;;31.04;34.28;95045.16;6152825;23;20040;-84
2022/08/12 13:35:59;;;;;;;7.00;4.32;;;;;;;31.57;32.85;95075.88;6153591;23;20009;-85
2022/08/12 13:38:39;;;;;;;11.40;3.65;;;;;;;31.51;34.30;95048.13;6153661;23;20024;-84
2022/08/12 13:41:07;;;;;;;8.15;3.05;;;;;;;31.62;32.59;95065.25;6152098;23;20021;-84
2022/08/12 13:43:32;;;;;;;6.50;3.08;;;;;;;31.93;32.50;95087.19;6150778;23;20060;-84
2022/08/12 13:46:01;;;;;;;3.50;3.20;;;;;;;31.67;33.27;95116.09;6150418;23;20124;-84
2022/08/12 13:48:28;;;;;;;4.47;3.17;;;;;;;31.91;32.25;95090.31;6149798;23;20196;-85
2022/08/12 13:50:56;;;;;;;5.88;3.47;;;;;;;32.08;32.86;95110.47;6151545;23;20010;-84
2022/08/12 13:53:21;;;;;;;4.78;3.20;;;;;;;31.44;32.49;95004.38;6152458;23;20423;-85
2022/08/12 13:55:48;;;;;;;9.32;2.90;;;;;;;32.30;32.12;95116.44;6154070;23;20009;-85
2022/08/12 13:58:19;;;;;;;4.38;2.75;;;;;;;32.60;32.56;95108.13;6149729;23;20154;-85
2022/08/12 14:00:50;;;;;;;3.65;2.50;;;;;;;32.38;31.36;95044.56;6151095;23;20474;-85
2022/08/12 14:03:20;;;;;;;5.47;3.38;;;;;;;32.78;30.62;95092.19;6152889;23;20005;-84
2022/08/12 14:05:47;;;;;;;2.47;2.25;;;;;;;32.71;30.38;95055.84;6151127;23;20017;-85
2022/08/12 14:08:15;;;;;;;3.22;2.60;;;;;;;32.96;30.32;95120.09;6155296;23;20432;-85
2022/08/12 14:10:48;;;;;;;2.78;2.53;;;;;;;32.53;29.76;95045.91;6154860;23;20337;-84
2022/08/12 14:13:28;;;;;;;4.28;2.85;;;;;;;33.17;30.48;95118.19;6153388;23;20048;-84
2022/08/12 14:15:57;;;;;;;7.90;2.75;;;;;;;33.29;30.68;95114.84;6155230;23;20440;-84
2022/08/12 14:18:24;;;;;;;7.72;2.95;;;;;;;32.80;30.89;95127.47;6155389;23;20080;-84
2022/08/12 14:20:57;;;;;;;9.35;3.17;;;;;;;33.21;31.89;95121.66;6153742;23;20009;-84
2022/08/12 14:23:24;;;;;;;14.02;3.30;;;;;;;31.61;30.84;94904.72;6153711;23;20009;-84
2022/08/12 14:25:51;;;;;;;7.00;2.55;;;;;;;32.72;31.17;95076.59;6154972;23;20014;-85
2022/08/12 14:28:22;;;;;;;5.22;3.03;;;;;;;31.03;31.24;94851.13;6154905;23;20080;-84
2022/08/12 14:31:01;;;;;;;4.90;2.83;;;;;;;32.50;31.45;95117.34;6156089;23;20014;-84
2022/08/12 14:33:30;;;;;;;4.63;2.28;;;;;;;32.17;31.17;95053.16;6155394;23;20009;-85
2022/08/12 14:35:56;;;;;;;3.45;2.50;;;;;;;32.29;31.24;95035.31;6154464;23;20012;-85
2022/08/12 14:38:24;;;;;;;2.83;2.30;;;;;;;32.31;31.66;95107.03;6153755;23;20022;-85
2022/08/12 14:40:55;;;;;;;5.22;2.60;;;;;;;31.58;32.53;95028.88;6154301;23;20360;-85
2022/08/12 14:43:21;;;;;;;;;;;;;;;32.25;32.67;95114.97;6155619;23;20345;-85
2022/08/12 14:45:47;;;;;;;4.80;2.88;;;;;;;32.62;31.48;95104.97;6153587;23;19923;-85
2022/08/12 14:48:15;;;;;;;5.18;2.60;;;;;;;32.45;31.59;95062.91;6152957;23;20415;-85
2022/08/12 14:50:42;;;;;;;3.05;2.38;;;;;;;32.96;30.73;95111.84;6153632;23;20471;-85
2022/08/12 14:53:09;;;;;;;5.40;2.47;;;;;;;33.00;30.59;95100.03;6152915;23;20009;-85
2022/08/12 14:55:40;;;;;;;4.50;2.83;;;;;;;33.09;30.42;95097.53;6153312;23;20001;-85
2022/08/12 14:58:06;;;;;;;2.90;2.60;;;;;;;32.67;31.07;95112.72;6152690;23;20125;-85
2022/08/12 15:03:17;;;;;;;3.85;2.78;;;;;;;33.12;29.32;95072.72;6154300;23;20016;-85
2022/08/12 15:05:42;;;;;;;4.82;2.58;;;;;;;33.20;29.13;95071.44;6152763;23;20013;-85
2022/08/12 15:08:12;;;;;;;4.38;2.50;;;;;;;33.12;29.71;95100.19;6153704;23;20356;-85
2022/08/12 15:10:43;;;;;;;3.90;2.58;;;;;;;31.92;29.45;94982.19;6153205;23;20387;-84
2022/08/12 15:13:10;;;;;;;4.72;2.45;;;;;;;32.45;28.85;95032.72;6152384;23;20104;-86
2022/08/12 15:15:38;;;;;;;2.72;2.40;;;;;;;32.69;29.70;95097.44;6154208;23;20467;-85
2022/08/12 15:18:07;;;;;;;6.03;2.70;;;;;;;32.52;29.24;95049.06;6152937;23;20045;-85
2022/08/12 15:20:34;;;;;;;5.53;2.65;;;;;;;32.66;29.79;95080.97;6154942;23;20021;-85
2022/08/12 15:23:00;;;;;;;4.63;2.33;;;;;;;32.21;29.51;95037.41;6152693;23;20045;-85
2022/08/12 15:25:29;;;;;;;4.65;2.13;;;;;;;32.63;29.01;94981.03;6152456;23;20076;-85